sensor_id;sensor_type;location;lat;lon;timestamp;P1;durP1;ratioP1;P2;durP2;ratioP2
62941;SDS011;49042;47.318;19.874;2023-01-04T00:00:28;29.83;;;19.33;;
62941;SDS011;49042;47.318;19.874;2023-01-04T00:03:30;33.70;;;19.90;;
62941;SDS011;49042;47.318;19.874;2023-01-04T00:06:34;32.38;;;19.10;;
62941;SDS011;49042;47.318;19.874;2023-01-04T00:09:36;31.25;;;19.25;;
62941;SDS011;49042;47.318;19.874;2023-01-04T00:12:38;28.42;;;18.48;;
62941;SDS011;49042;47.318;19.874;2023-01-04T00:15:40;27.67;;;18.10;;
62941;SDS011;49042;47.318;19.874;2023-01-04T00:18:42;28.90;;;18.23;;
62941;SDS011;49042;47.318;19.874;2023-01-04T00:21:44;29.23;;;18.12;;
62941;SDS011;49042;47.318;19.874;2023-01-04T00:24:46;27.98;;;17.77;;
62941;SDS011;49042;47.318;19.874;2023-01-04T00:27:49;28.17;;;17.92;;
62941;SDS011;49042;47.318;19.874;2023-01-04T00:30:51;28.73;;;17.75;;
62941;SDS011;49042;47.318;19.874;2023-01-04T00:33:53;24.83;;;15.70;;
62941;SDS011;49042;47.318;19.874;2023-01-04T00:36:56;22.87;;;14.50;;
62941;SDS011;49042;47.318;19.874;2023-01-04T00:39:58;26.73;;;16.52;;
62941;SDS011;49042;47.318;19.874;2023-01-04T00:43:00;29.02;;;17.70;;
62941;SDS011;49042;47.318;19.874;2023-01-04T00:46:01;33.60;;;18.00;;
62941;SDS011;49042;47.318;19.874;2023-01-04T00:49:04;26.60;;;16.08;;
62941;SDS011;49042;47.318;19.874;2023-01-04T00:52:07;23.30;;;15.73;;
62941;SDS011;49042;47.318;19.874;2023-01-04T00:55:08;25.95;;;16.00;;
62941;SDS011;49042;47.318;19.874;2023-01-04T00:58:10;27.17;;;17.05;;
62941;SDS011;49042;47.318;19.874;2023-01-04T01:01:12;26.35;;;15.23;;
62941;SDS011;49042;47.318;19.874;2023-01-04T01:04:16;24.75;;;16.10;;
62941;SDS011;49042;47.318;19.874;2023-01-04T01:07:19;30.05;;;17.60;;
62941;SDS011;49042;47.318;19.874;2023-01-04T01:10:21;24.70;;;16.08;;
62941;SDS011;49042;47.318;19.874;2023-01-04T01:13:22;24.60;;;16.73;;
62941;SDS011;49042;47.318;19.874;2023-01-04T01:16:24;25.98;;;15.90;;
62941;SDS011;49042;47.318;19.874;2023-01-04T01:19:47;22.95;;;15.20;;
62941;SDS011;49042;47.318;19.874;2023-01-04T01:22:48;23.98;;;14.70;;
62941;SDS011;49042;47.318;19.874;2023-01-04T01:25:50;24.58;;;15.40;;
62941;SDS011;49042;47.318;19.874;2023-01-04T01:28:52;21.73;;;14.35;;
62941;SDS011;49042;47.318;19.874;2023-01-04T01:31:53;22.62;;;14.38;;
62941;SDS011;49042;47.318;19.874;2023-01-04T01:34:55;24.05;;;14.57;;
62941;SDS011;49042;47.318;19.874;2023-01-04T01:37:57;23.52;;;14.45;;
62941;SDS011;49042;47.318;19.874;2023-01-04T01:40:59;23.08;;;15.32;;
62941;SDS011;49042;47.318;19.874;2023-01-04T01:47:41;22.40;;;13.98;;
62941;SDS011;49042;47.318;19.874;2023-01-04T01:50:47;22.80;;;14.13;;
62941;SDS011;49042;47.318;19.874;2023-01-04T01:53:53;21.53;;;12.50;;
62941;SDS011;49042;47.318;19.874;2023-01-04T01:57:03;17.02;;;11.82;;
62941;SDS011;49042;47.318;19.874;2023-01-04T02:00:08;30.45;;;13.00;;
62941;SDS011;49042;47.318;19.874;2023-01-04T02:03:15;18.98;;;12.25;;
62941;SDS011;49042;47.318;19.874;2023-01-04T02:06:21;20.17;;;13.25;;
62941;SDS011;49042;47.318;19.874;2023-01-04T02:09:29;17.08;;;11.55;;
62941;SDS011;49042;47.318;19.874;2023-01-04T02:12:32;18.33;;;11.85;;
62941;SDS011;49042;47.318;19.874;2023-01-04T02:15:38;19.10;;;12.43;;
62941;SDS011;49042;47.318;19.874;2023-01-04T02:28:57;21.67;;;14.18;;
62941;SDS011;49042;47.318;19.874;2023-01-04T02:32:05;24.05;;;14.35;;
62941;SDS011;49042;47.318;19.874;2023-01-04T02:35:20;28.35;;;12.75;;
62941;SDS011;49042;47.318;19.874;2023-01-04T02:41:45;40.63;;;10.27;;
62941;SDS011;49042;47.318;19.874;2023-01-04T02:44:52;39.33;;;8.15;;
62941;SDS011;49042;47.318;19.874;2023-01-04T02:48:04;32.10;;;8.32;;
62941;SDS011;49042;47.318;19.874;2023-01-04T02:51:35;19.75;;;9.07;;
62941;SDS011;49042;47.318;19.874;2023-01-04T02:54:38;13.68;;;8.63;;
62941;SDS011;49042;47.318;19.874;2023-01-04T02:58:00;16.33;;;9.40;;
62941;SDS011;49042;47.318;19.874;2023-01-04T03:09:13;10.55;;;6.68;;
62941;SDS011;49042;47.318;19.874;2023-01-04T03:12:21;8.00;;;6.30;;
62941;SDS011;49042;47.318;19.874;2023-01-04T03:15:33;12.60;;;7.90;;
62941;SDS011;49042;47.318;19.874;2023-01-04T03:18:39;10.45;;;7.37;;
62941;SDS011;49042;47.318;19.874;2023-01-04T03:21:44;12.75;;;7.43;;
62941;SDS011;49042;47.318;19.874;2023-01-04T03:24:46;16.77;;;7.70;;
62941;SDS011;49042;47.318;19.874;2023-01-04T03:28:07;9.40;;;6.87;;
62941;SDS011;49042;47.318;19.874;2023-01-04T03:31:32;13.05;;;7.82;;
62941;SDS011;49042;47.318;19.874;2023-01-04T03:34:56;12.52;;;7.80;;
62941;SDS011;49042;47.318;19.874;2023-01-04T03:41:47;13.75;;;6.97;;
62941;SDS011;49042;47.318;19.874;2023-01-04T03:45:17;9.75;;;6.00;;
62941;SDS011;49042;47.318;19.874;2023-01-04T03:48:43;10.30;;;7.20;;
62941;SDS011;49042;47.318;19.874;2023-01-04T03:51:54;16.52;;;8.85;;
62941;SDS011;49042;47.318;19.874;2023-01-04T03:54:59;14.43;;;9.15;;
62941;SDS011;49042;47.318;19.874;2023-01-04T03:58:02;15.60;;;10.02;;
62941;SDS011;49042;47.318;19.874;2023-01-04T04:01:04;15.88;;;9.90;;
62941;SDS011;49042;47.318;19.874;2023-01-04T04:04:06;15.18;;;9.48;;
62941;SDS011;49042;47.318;19.874;2023-01-04T04:07:27;12.60;;;8.30;;
62941;SDS011;49042;47.318;19.874;2023-01-04T04:10:48;13.90;;;9.02;;
62941;SDS011;49042;47.318;19.874;2023-01-04T04:13:49;14.55;;;8.32;;
62941;SDS011;49042;47.318;19.874;2023-01-04T04:16:51;13.90;;;7.90;;
62941;SDS011;49042;47.318;19.874;2023-01-04T04:19:53;14.23;;;9.30;;
62941;SDS011;49042;47.318;19.874;2023-01-04T04:22:55;12.57;;;8.32;;
62941;SDS011;49042;47.318;19.874;2023-01-04T04:25:56;18.12;;;9.18;;
62941;SDS011;49042;47.318;19.874;2023-01-04T04:29:12;15.10;;;9.27;;
62941;SDS011;49042;47.318;19.874;2023-01-04T04:32:14;14.90;;;9.05;;
62941;SDS011;49042;47.318;19.874;2023-01-04T04:35:16;18.77;;;8.80;;
62941;SDS011;49042;47.318;19.874;2023-01-04T04:38:18;14.20;;;8.52;;
62941;SDS011;49042;47.318;19.874;2023-01-04T04:41:20;12.85;;;8.82;;
62941;SDS011;49042;47.318;19.874;2023-01-04T04:44:40;14.10;;;8.27;;
62941;SDS011;49042;47.318;19.874;2023-01-04T04:47:41;13.88;;;7.90;;
62941;SDS011;49042;47.318;19.874;2023-01-04T04:50:43;14.13;;;8.50;;
62941;SDS011;49042;47.318;19.874;2023-01-04T04:53:45;14.95;;;9.10;;
62941;SDS011;49042;47.318;19.874;2023-01-04T04:56:47;14.57;;;8.32;;
62941;SDS011;49042;47.318;19.874;2023-01-04T04:59:49;14.73;;;8.38;;
62941;SDS011;49042;47.318;19.874;2023-01-04T05:02:51;17.75;;;8.70;;
62941;SDS011;49042;47.318;19.874;2023-01-04T05:05:54;13.85;;;8.15;;
62941;SDS011;49042;47.318;19.874;2023-01-04T05:08:55;13.77;;;7.70;;
62941;SDS011;49042;47.318;19.874;2023-01-04T05:11:57;17.10;;;8.82;;
62941;SDS011;49042;47.318;19.874;2023-01-04T05:15:17;19.70;;;10.57;;
62941;SDS011;49042;47.318;19.874;2023-01-04T05:18:20;50.20;;;24.25;;
62941;SDS011;49042;47.318;19.874;2023-01-04T05:21:22;24.05;;;12.93;;
62941;SDS011;49042;47.318;19.874;2023-01-04T05:24:24;22.08;;;12.18;;
62941;SDS011;49042;47.318;19.874;2023-01-04T05:27:26;20.85;;;12.75;;
62941;SDS011;49042;47.318;19.874;2023-01-04T05:30:27;25.85;;;14.50;;
62941;SDS011;49042;47.318;19.874;2023-01-04T05:33:48;17.30;;;10.90;;
62941;SDS011;49042;47.318;19.874;2023-01-04T05:36:50;19.60;;;11.82;;
62941;SDS011;49042;47.318;19.874;2023-01-04T05:39:51;16.45;;;9.73;;
62941;SDS011;49042;47.318;19.874;2023-01-04T05:42:53;19.05;;;11.20;;
62941;SDS011;49042;47.318;19.874;2023-01-04T05:45:55;18.85;;;9.90;;
62941;SDS011;49042;47.318;19.874;2023-01-04T05:48:57;11.73;;;7.78;;
62941;SDS011;49042;47.318;19.874;2023-01-04T05:51:58;15.68;;;8.32;;
62941;SDS011;49042;47.318;19.874;2023-01-04T05:55:00;17.00;;;9.23;;
62941;SDS011;49042;47.318;19.874;2023-01-04T05:58:02;21.83;;;13.73;;
62941;SDS011;49042;47.318;19.874;2023-01-04T06:01:04;21.65;;;12.50;;
62941;SDS011;49042;47.318;19.874;2023-01-04T06:04:08;17.62;;;10.20;;
62941;SDS011;49042;47.318;19.874;2023-01-04T06:07:10;18.12;;;10.50;;
62941;SDS011;49042;47.318;19.874;2023-01-04T06:10:11;16.80;;;10.35;;
62941;SDS011;49042;47.318;19.874;2023-01-04T06:13:13;15.75;;;9.85;;
62941;SDS011;49042;47.318;19.874;2023-01-04T06:16:15;18.48;;;12.05;;
62941;SDS011;49042;47.318;19.874;2023-01-04T06:19:17;37.50;;;19.58;;
62941;SDS011;49042;47.318;19.874;2023-01-04T06:22:18;23.00;;;12.60;;
62941;SDS011;49042;47.318;19.874;2023-01-04T06:25:21;15.55;;;8.65;;
62941;SDS011;49042;47.318;19.874;2023-01-04T06:28:22;14.75;;;8.27;;
62941;SDS011;49042;47.318;19.874;2023-01-04T06:31:24;17.33;;;10.65;;
62941;SDS011;49042;47.318;19.874;2023-01-04T06:34:26;17.83;;;10.45;;
62941;SDS011;49042;47.318;19.874;2023-01-04T06:37:31;15.65;;;9.65;;
62941;SDS011;49042;47.318;19.874;2023-01-04T06:40:33;14.20;;;8.60;;
62941;SDS011;49042;47.318;19.874;2023-01-04T06:43:35;16.27;;;8.70;;
62941;SDS011;49042;47.318;19.874;2023-01-04T06:46:36;16.42;;;9.82;;
62941;SDS011;49042;47.318;19.874;2023-01-04T06:49:38;16.83;;;11.00;;
62941;SDS011;49042;47.318;19.874;2023-01-04T06:52:40;17.83;;;11.27;;
62941;SDS011;49042;47.318;19.874;2023-01-04T06:55:42;19.50;;;10.98;;
62941;SDS011;49042;47.318;19.874;2023-01-04T06:58:45;18.80;;;11.55;;
62941;SDS011;49042;47.318;19.874;2023-01-04T07:01:47;20.27;;;12.32;;
62941;SDS011;49042;47.318;19.874;2023-01-04T07:04:49;18.92;;;11.55;;
62941;SDS011;49042;47.318;19.874;2023-01-04T07:07:50;20.75;;;12.73;;
62941;SDS011;49042;47.318;19.874;2023-01-04T07:10:52;23.02;;;14.02;;
62941;SDS011;49042;47.318;19.874;2023-01-04T07:13:54;21.50;;;13.40;;
62941;SDS011;49042;47.318;19.874;2023-01-04T07:16:56;25.90;;;13.70;;
62941;SDS011;49042;47.318;19.874;2023-01-04T07:19:57;22.95;;;13.60;;
62941;SDS011;49042;47.318;19.874;2023-01-04T07:22:59;33.50;;;19.48;;
62941;SDS011;49042;47.318;19.874;2023-01-04T07:26:01;33.83;;;19.83;;
62941;SDS011;49042;47.318;19.874;2023-01-04T07:29:03;30.58;;;17.37;;
62941;SDS011;49042;47.318;19.874;2023-01-04T07:32:17;29.48;;;16.12;;
62941;SDS011;49042;47.318;19.874;2023-01-04T07:35:19;28.27;;;14.10;;
62941;SDS011;49042;47.318;19.874;2023-01-04T07:38:21;32.17;;;16.02;;
62941;SDS011;49042;47.318;19.874;2023-01-04T07:41:22;27.35;;;15.75;;
62941;SDS011;49042;47.318;19.874;2023-01-04T07:44:24;33.53;;;17.25;;
62941;SDS011;49042;47.318;19.874;2023-01-04T07:47:28;29.55;;;17.83;;
62941;SDS011;49042;47.318;19.874;2023-01-04T07:50:29;39.55;;;23.62;;
62941;SDS011;49042;47.318;19.874;2023-01-04T07:53:32;38.05;;;21.58;;
62941;SDS011;49042;47.318;19.874;2023-01-04T07:56:34;35.45;;;19.23;;
62941;SDS011;49042;47.318;19.874;2023-01-04T07:59:36;43.08;;;21.35;;
62941;SDS011;49042;47.318;19.874;2023-01-04T08:02:37;44.75;;;23.17;;
62941;SDS011;49042;47.318;19.874;2023-01-04T08:05:39;31.00;;;16.87;;
62941;SDS011;49042;47.318;19.874;2023-01-04T08:08:42;27.55;;;13.82;;
62941;SDS011;49042;47.318;19.874;2023-01-04T08:11:44;24.83;;;13.80;;
62941;SDS011;49042;47.318;19.874;2023-01-04T08:14:46;52.80;;;28.38;;
62941;SDS011;49042;47.318;19.874;2023-01-04T08:17:47;137.32;;;39.10;;
62941;SDS011;49042;47.318;19.874;2023-01-04T08:20:49;38.45;;;16.87;;
62941;SDS011;49042;47.318;19.874;2023-01-04T08:23:58;34.63;;;17.85;;
62941;SDS011;49042;47.318;19.874;2023-01-04T08:27:01;19.20;;;12.45;;
62941;SDS011;49042;47.318;19.874;2023-01-04T08:30:03;17.23;;;9.98;;
62941;SDS011;49042;47.318;19.874;2023-01-04T08:33:11;14.40;;;8.98;;
62941;SDS011;49042;47.318;19.874;2023-01-04T08:36:18;15.75;;;11.50;;
62941;SDS011;49042;47.318;19.874;2023-01-04T08:39:27;19.52;;;13.50;;
62941;SDS011;49042;47.318;19.874;2023-01-04T08:42:33;16.30;;;9.63;;
62941;SDS011;49042;47.318;19.874;2023-01-04T08:45:35;12.70;;;7.45;;
62941;SDS011;49042;47.318;19.874;2023-01-04T08:48:37;36.40;;;17.27;;
62941;SDS011;49042;47.318;19.874;2023-01-04T08:51:39;24.00;;;12.15;;
62941;SDS011;49042;47.318;19.874;2023-01-04T08:54:41;55.55;;;22.85;;
62941;SDS011;49042;47.318;19.874;2023-01-04T08:57:43;53.83;;;27.48;;
62941;SDS011;49042;47.318;19.874;2023-01-04T09:00:45;21.00;;;13.13;;
62941;SDS011;49042;47.318;19.874;2023-01-04T09:03:47;22.62;;;14.75;;
62941;SDS011;49042;47.318;19.874;2023-01-04T09:06:49;23.80;;;14.18;;
62941;SDS011;49042;47.318;19.874;2023-01-04T09:09:50;17.25;;;11.98;;
62941;SDS011;49042;47.318;19.874;2023-01-04T09:12:52;12.48;;;9.07;;
62941;SDS011;49042;47.318;19.874;2023-01-04T09:15:54;19.87;;;9.02;;
62941;SDS011;49042;47.318;19.874;2023-01-04T09:18:59;21.98;;;10.00;;
62941;SDS011;49042;47.318;19.874;2023-01-04T09:22:01;29.08;;;13.18;;
62941;SDS011;49042;47.318;19.874;2023-01-04T09:25:04;22.30;;;12.40;;
62941;SDS011;49042;47.318;19.874;2023-01-04T09:28:05;19.45;;;10.15;;
62941;SDS011;49042;47.318;19.874;2023-01-04T09:31:08;22.30;;;11.73;;
62941;SDS011;49042;47.318;19.874;2023-01-04T09:34:11;21.52;;;11.65;;
62941;SDS011;49042;47.318;19.874;2023-01-04T09:37:17;18.27;;;10.10;;
62941;SDS011;49042;47.318;19.874;2023-01-04T09:40:21;13.73;;;9.18;;
62941;SDS011;49042;47.318;19.874;2023-01-04T09:43:28;32.30;;;13.95;;
62941;SDS011;49042;47.318;19.874;2023-01-04T09:50:11;22.08;;;13.25;;
62941;SDS011;49042;47.318;19.874;2023-01-04T09:56:33;16.60;;;9.90;;
62941;SDS011;49042;47.318;19.874;2023-01-04T09:59:37;16.67;;;10.37;;
62941;SDS011;49042;47.318;19.874;2023-01-04T10:02:46;15.35;;;8.70;;
62941;SDS011;49042;47.318;19.874;2023-01-04T10:05:53;16.75;;;10.75;;
62941;SDS011;49042;47.318;19.874;2023-01-04T10:08:56;17.15;;;9.23;;
62941;SDS011;49042;47.318;19.874;2023-01-04T10:12:14;14.38;;;8.52;;
62941;SDS011;49042;47.318;19.874;2023-01-04T10:23:02;12.52;;;8.88;;
62941;SDS011;49042;47.318;19.874;2023-01-04T10:26:14;14.70;;;8.80;;
62941;SDS011;49042;47.318;19.874;2023-01-04T10:29:33;17.65;;;9.43;;
62941;SDS011;49042;47.318;19.874;2023-01-04T10:32:50;16.37;;;9.05;;
62941;SDS011;49042;47.318;19.874;2023-01-04T10:36:22;16.30;;;8.85;;
62941;SDS011;49042;47.318;19.874;2023-01-04T10:39:28;13.27;;;7.93;;
62941;SDS011;49042;47.318;19.874;2023-01-04T10:42:35;11.63;;;6.95;;
62941;SDS011;49042;47.318;19.874;2023-01-04T10:45:51;10.77;;;6.78;;
62941;SDS011;49042;47.318;19.874;2023-01-04T10:49:11;13.25;;;7.25;;
62941;SDS011;49042;47.318;19.874;2023-01-04T10:52:20;13.43;;;7.45;;
62941;SDS011;49042;47.318;19.874;2023-01-04T10:59:05;9.88;;;6.57;;
62941;SDS011;49042;47.318;19.874;2023-01-04T11:06:11;16.13;;;8.23;;
62941;SDS011;49042;47.318;19.874;2023-01-04T11:09:21;13.52;;;7.93;;
62941;SDS011;49042;47.318;19.874;2023-01-04T11:12:26;16.05;;;9.38;;
62941;SDS011;49042;47.318;19.874;2023-01-04T11:15:28;17.00;;;10.18;;
62941;SDS011;49042;47.318;19.874;2023-01-04T11:18:31;18.60;;;10.55;;
62941;SDS011;49042;47.318;19.874;2023-01-04T11:21:38;18.15;;;9.82;;
62941;SDS011;49042;47.318;19.874;2023-01-04T11:24:44;16.33;;;9.68;;
62941;SDS011;49042;47.318;19.874;2023-01-04T11:28:15;15.80;;;9.80;;
62941;SDS011;49042;47.318;19.874;2023-01-04T11:31:45;15.20;;;9.93;;
62941;SDS011;49042;47.318;19.874;2023-01-04T11:34:52;19.98;;;11.07;;
62941;SDS011;49042;47.318;19.874;2023-01-04T11:38:05;25.77;;;12.55;;
62941;SDS011;49042;47.318;19.874;2023-01-04T11:41:14;21.40;;;11.60;;
62941;SDS011;49042;47.318;19.874;2023-01-04T11:44:17;20.45;;;10.95;;
62941;SDS011;49042;47.318;19.874;2023-01-04T11:47:20;15.35;;;9.60;;
62941;SDS011;49042;47.318;19.874;2023-01-04T11:50:41;17.35;;;9.50;;
62941;SDS011;49042;47.318;19.874;2023-01-04T11:53:45;15.85;;;8.27;;
62941;SDS011;49042;47.318;19.874;2023-01-04T11:57:04;17.00;;;8.88;;
62941;SDS011;49042;47.318;19.874;2023-01-04T12:00:13;14.13;;;7.90;;
62941;SDS011;49042;47.318;19.874;2023-01-04T12:03:16;10.85;;;7.28;;
62941;SDS011;49042;47.318;19.874;2023-01-04T12:06:40;14.30;;;8.63;;
62941;SDS011;49042;47.318;19.874;2023-01-04T12:09:42;18.55;;;8.23;;
62941;SDS011;49042;47.318;19.874;2023-01-04T12:12:44;15.55;;;8.40;;
62941;SDS011;49042;47.318;19.874;2023-01-04T12:15:57;12.52;;;7.10;;
62941;SDS011;49042;47.318;19.874;2023-01-04T12:19:17;12.00;;;7.22;;
62941;SDS011;49042;47.318;19.874;2023-01-04T12:22:21;9.95;;;6.43;;
62941;SDS011;49042;47.318;19.874;2023-01-04T12:25:38;11.25;;;6.37;;
62941;SDS011;49042;47.318;19.874;2023-01-04T12:28:47;10.30;;;6.40;;
62941;SDS011;49042;47.318;19.874;2023-01-04T12:39:01;10.05;;;5.80;;
62941;SDS011;49042;47.318;19.874;2023-01-04T12:42:08;6.20;;;4.07;;
62941;SDS011;49042;47.318;19.874;2023-01-04T12:45:15;9.57;;;4.78;;
62941;SDS011;49042;47.318;19.874;2023-01-04T12:51:46;5.62;;;3.78;;
62941;SDS011;49042;47.318;19.874;2023-01-04T12:59:04;6.55;;;4.50;;
62941;SDS011;49042;47.318;19.874;2023-01-04T13:02:28;13.18;;;7.03;;
62941;SDS011;49042;47.318;19.874;2023-01-04T13:05:34;19.48;;;10.82;;
62941;SDS011;49042;47.318;19.874;2023-01-04T13:08:57;6.00;;;4.70;;
62941;SDS011;49042;47.318;19.874;2023-01-04T13:12:18;8.20;;;5.30;;
62941;SDS011;49042;47.318;19.874;2023-01-04T13:15:29;7.62;;;4.87;;
62941;SDS011;49042;47.318;19.874;2023-01-04T13:18:53;7.37;;;4.97;;
62941;SDS011;49042;47.318;19.874;2023-01-04T13:21:59;7.80;;;4.82;;
62941;SDS011;49042;47.318;19.874;2023-01-04T13:25:00;11.20;;;5.05;;
62941;SDS011;49042;47.318;19.874;2023-01-04T13:28:05;13.80;;;5.15;;
62941;SDS011;49042;47.318;19.874;2023-01-04T13:31:06;7.55;;;4.45;;
62941;SDS011;49042;47.318;19.874;2023-01-04T13:34:14;7.00;;;4.55;;
62941;SDS011;49042;47.318;19.874;2023-01-04T13:37:24;6.82;;;4.50;;
62941;SDS011;49042;47.318;19.874;2023-01-04T13:40:35;10.77;;;4.30;;
62941;SDS011;49042;47.318;19.874;2023-01-04T13:47:00;9.93;;;4.07;;
62941;SDS011;49042;47.318;19.874;2023-01-04T13:50:02;9.00;;;3.80;;
62941;SDS011;49042;47.318;19.874;2023-01-04T13:53:05;6.05;;;4.22;;
62941;SDS011;49042;47.318;19.874;2023-01-04T13:56:20;8.90;;;4.93;;
62941;SDS011;49042;47.318;19.874;2023-01-04T13:59:29;7.20;;;4.32;;
62941;SDS011;49042;47.318;19.874;2023-01-04T14:02:31;11.70;;;6.47;;
62941;SDS011;49042;47.318;19.874;2023-01-04T14:05:36;5.43;;;3.72;;
62941;SDS011;49042;47.318;19.874;2023-01-04T14:08:49;34.17;;;17.77;;
62941;SDS011;49042;47.318;19.874;2023-01-04T14:11:58;30.52;;;15.55;;
62941;SDS011;49042;47.318;19.874;2023-01-04T14:15:27;35.97;;;19.83;;
62941;SDS011;49042;47.318;19.874;2023-01-04T14:18:29;19.00;;;9.10;;
62941;SDS011;49042;47.318;19.874;2023-01-04T14:21:32;11.12;;;7.60;;
62941;SDS011;49042;47.318;19.874;2023-01-04T14:24:36;25.08;;;7.93;;
62941;SDS011;49042;47.318;19.874;2023-01-04T14:31:31;14.73;;;6.75;;
62941;SDS011;49042;47.318;19.874;2023-01-04T14:34:35;10.48;;;5.57;;
62941;SDS011;49042;47.318;19.874;2023-01-04T14:37:37;7.28;;;5.12;;
62941;SDS011;49042;47.318;19.874;2023-01-04T14:40:38;9.32;;;5.43;;
62941;SDS011;49042;47.318;19.874;2023-01-04T14:43:43;7.90;;;5.00;;
62941;SDS011;49042;47.318;19.874;2023-01-04T14:46:46;8.50;;;5.45;;
62941;SDS011;49042;47.318;19.874;2023-01-04T14:49:50;8.68;;;4.93;;
62941;SDS011;49042;47.318;19.874;2023-01-04T14:52:52;11.35;;;5.18;;
62941;SDS011;49042;47.318;19.874;2023-01-04T14:55:54;9.27;;;5.53;;
62941;SDS011;49042;47.318;19.874;2023-01-04T14:58:56;12.43;;;5.97;;
62941;SDS011;49042;47.318;19.874;2023-01-04T15:01:58;12.77;;;6.10;;
62941;SDS011;49042;47.318;19.874;2023-01-04T15:05:00;9.73;;;5.60;;
62941;SDS011;49042;47.318;19.874;2023-01-04T15:08:02;14.35;;;7.57;;
62941;SDS011;49042;47.318;19.874;2023-01-04T15:11:04;12.73;;;6.95;;
62941;SDS011;49042;47.318;19.874;2023-01-04T15:14:05;12.98;;;7.20;;
62941;SDS011;49042;47.318;19.874;2023-01-04T15:17:07;16.83;;;8.75;;
62941;SDS011;49042;47.318;19.874;2023-01-04T15:20:10;20.05;;;9.23;;
62941;SDS011;49042;47.318;19.874;2023-01-04T15:23:12;19.25;;;10.38;;
62941;SDS011;49042;47.318;19.874;2023-01-04T15:26:14;17.50;;;9.25;;
62941;SDS011;49042;47.318;19.874;2023-01-04T15:29:16;18.12;;;10.82;;
62941;SDS011;49042;47.318;19.874;2023-01-04T15:32:17;19.17;;;10.02;;
62941;SDS011;49042;47.318;19.874;2023-01-04T15:35:19;14.27;;;9.85;;
62941;SDS011;49042;47.318;19.874;2023-01-04T15:38:21;20.65;;;12.18;;
62941;SDS011;49042;47.318;19.874;2023-01-04T15:41:22;21.02;;;11.50;;
62941;SDS011;49042;47.318;19.874;2023-01-04T15:44:43;22.87;;;11.05;;
62941;SDS011;49042;47.318;19.874;2023-01-04T15:47:44;26.02;;;14.02;;
62941;SDS011;49042;47.318;19.874;2023-01-04T15:50:46;19.05;;;11.20;;
62941;SDS011;49042;47.318;19.874;2023-01-04T15:53:48;23.05;;;11.63;;
62941;SDS011;49042;47.318;19.874;2023-01-04T15:56:51;19.98;;;10.93;;
62941;SDS011;49042;47.318;19.874;2023-01-04T15:59:53;18.95;;;10.85;;
62941;SDS011;49042;47.318;19.874;2023-01-04T16:02:54;20.23;;;10.35;;
62941;SDS011;49042;47.318;19.874;2023-01-04T16:05:57;19.17;;;10.05;;
62941;SDS011;49042;47.318;19.874;2023-01-04T16:09:03;22.77;;;10.35;;
62941;SDS011;49042;47.318;19.874;2023-01-04T16:12:05;22.62;;;10.05;;
62941;SDS011;49042;47.318;19.874;2023-01-04T16:15:26;16.02;;;9.90;;
62941;SDS011;49042;47.318;19.874;2023-01-04T16:18:27;22.60;;;10.70;;
62941;SDS011;49042;47.318;19.874;2023-01-04T16:21:33;20.10;;;10.75;;
62941;SDS011;49042;47.318;19.874;2023-01-04T16:24:34;20.05;;;10.20;;
62941;SDS011;49042;47.318;19.874;2023-01-04T16:27:56;18.75;;;10.80;;
62941;SDS011;49042;47.318;19.874;2023-01-04T16:30:58;16.73;;;10.63;;
62941;SDS011;49042;47.318;19.874;2023-01-04T16:33:59;22.90;;;11.05;;
62941;SDS011;49042;47.318;19.874;2023-01-04T16:37:01;25.88;;;11.35;;
62941;SDS011;49042;47.318;19.874;2023-01-04T16:40:04;25.17;;;11.70;;
62941;SDS011;49042;47.318;19.874;2023-01-04T16:43:08;24.87;;;11.73;;
62941;SDS011;49042;47.318;19.874;2023-01-04T16:49:26;53.30;;;18.85;;
62941;SDS011;49042;47.318;19.874;2023-01-04T16:52:28;45.75;;;22.55;;
62941;SDS011;49042;47.318;19.874;2023-01-04T16:55:30;62.78;;;32.63;;
62941;SDS011;49042;47.318;19.874;2023-01-04T16:58:32;54.20;;;26.25;;
62941;SDS011;49042;47.318;19.874;2023-01-04T17:01:34;44.83;;;23.20;;
62941;SDS011;49042;47.318;19.874;2023-01-04T17:04:43;44.70;;;24.33;;
62941;SDS011;49042;47.318;19.874;2023-01-04T17:07:49;51.60;;;26.85;;
62941;SDS011;49042;47.318;19.874;2023-01-04T17:10:51;27.65;;;15.68;;
62941;SDS011;49042;47.318;19.874;2023-01-04T17:13:53;34.03;;;17.65;;
62941;SDS011;49042;47.318;19.874;2023-01-04T17:16:55;23.62;;;13.95;;
62941;SDS011;49042;47.318;19.874;2023-01-04T17:19:58;26.48;;;15.23;;
62941;SDS011;49042;47.318;19.874;2023-01-04T17:23:00;27.45;;;14.30;;
62941;SDS011;49042;47.318;19.874;2023-01-04T17:26:03;24.60;;;14.18;;
62941;SDS011;49042;47.318;19.874;2023-01-04T17:29:07;23.33;;;13.23;;
62941;SDS011;49042;47.318;19.874;2023-01-04T17:32:10;33.78;;;15.95;;
62941;SDS011;49042;47.318;19.874;2023-01-04T17:35:12;36.75;;;15.80;;
62941;SDS011;49042;47.318;19.874;2023-01-04T17:38:14;43.45;;;19.80;;
62941;SDS011;49042;47.318;19.874;2023-01-04T17:41:20;50.58;;;23.60;;
62941;SDS011;49042;47.318;19.874;2023-01-04T17:44:23;44.28;;;23.15;;
62941;SDS011;49042;47.318;19.874;2023-01-04T17:47:25;46.80;;;21.52;;
62941;SDS011;49042;47.318;19.874;2023-01-04T17:50:28;50.83;;;26.10;;
62941;SDS011;49042;47.318;19.874;2023-01-04T17:53:30;101.12;;;47.30;;
62941;SDS011;49042;47.318;19.874;2023-01-04T17:56:32;88.95;;;45.30;;
62941;SDS011;49042;47.318;19.874;2023-01-04T17:59:35;55.70;;;27.85;;
62941;SDS011;49042;47.318;19.874;2023-01-04T18:02:37;51.30;;;25.85;;
62941;SDS011;49042;47.318;19.874;2023-01-04T18:05:45;46.63;;;24.27;;
62941;SDS011;49042;47.318;19.874;2023-01-04T18:08:53;43.50;;;24.40;;
62941;SDS011;49042;47.318;19.874;2023-01-04T18:11:56;74.40;;;31.17;;
62941;SDS011;49042;47.318;19.874;2023-01-04T18:14:58;77.15;;;35.40;;
62941;SDS011;49042;47.318;19.874;2023-01-04T18:18:00;48.17;;;24.20;;
62941;SDS011;49042;47.318;19.874;2023-01-04T18:21:07;63.67;;;29.23;;
62941;SDS011;49042;47.318;19.874;2023-01-04T18:27:42;56.10;;;28.02;;
62941;SDS011;49042;47.318;19.874;2023-01-04T18:30:45;44.72;;;25.08;;
62941;SDS011;49042;47.318;19.874;2023-01-04T18:33:53;46.42;;;23.48;;
62941;SDS011;49042;47.318;19.874;2023-01-04T18:36:57;49.22;;;21.65;;
62941;SDS011;49042;47.318;19.874;2023-01-04T18:40:00;39.10;;;21.30;;
62941;SDS011;49042;47.318;19.874;2023-01-04T18:43:06;49.08;;;21.75;;
62941;SDS011;49042;47.318;19.874;2023-01-04T18:46:09;51.05;;;24.30;;
62941;SDS011;49042;47.318;19.874;2023-01-04T18:49:12;35.40;;;19.55;;
62941;SDS011;49042;47.318;19.874;2023-01-04T18:52:15;43.90;;;22.27;;
62941;SDS011;49042;47.318;19.874;2023-01-04T18:55:18;51.08;;;27.13;;
62941;SDS011;49042;47.318;19.874;2023-01-04T18:58:21;43.33;;;22.45;;
62941;SDS011;49042;47.318;19.874;2023-01-04T19:01:24;35.97;;;20.80;;
62941;SDS011;49042;47.318;19.874;2023-01-04T19:04:30;34.53;;;19.37;;
62941;SDS011;49042;47.318;19.874;2023-01-04T19:07:37;29.00;;;18.75;;
62941;SDS011;49042;47.318;19.874;2023-01-04T19:10:40;29.35;;;17.80;;
62941;SDS011;49042;47.318;19.874;2023-01-04T19:13:43;33.83;;;18.35;;
62941;SDS011;49042;47.318;19.874;2023-01-04T19:16:46;32.22;;;19.35;;